sensor_id;sensor_type;location;lat;lon;timestamp;P1;durP1;ratioP1;P2;durP2;ratioP2
16693;SDS011;39538;52.196;9.892;2022-07-10T00:02:16;211.30;;;202.00;;
16693;SDS011;39538;52.196;9.892;2022-07-10T00:04:43;201.27;;;192.27;;
16693;SDS011;39538;52.196;9.892;2022-07-10T00:07:09;228.37;;;218.37;;
16693;SDS011;39538;52.196;9.892;2022-07-10T00:09:37;222.73;;;212.57;;
16693;SDS011;39538;52.196;9.892;2022-07-10T00:12:03;225.67;;;216.37;;
16693;SDS011;39538;52.196;9.892;2022-07-10T00:14:30;224.33;;;214.70;;
16693;SDS011;39538;52.196;9.892;2022-07-10T00:16:57;215.67;;;206.17;;
16693;SDS011;39538;52.196;9.892;2022-07-10T00:19:23;220.23;;;210.70;;
16693;SDS011;39538;52.196;9.892;2022-07-10T00:21:49;221.57;;;211.77;;
16693;SDS011;39538;52.196;9.892;2022-07-10T00:24:16;232.63;;;222.40;;
16693;SDS011;39538;52.196;9.892;2022-07-10T00:26:44;214.57;;;204.23;;
16693;SDS011;39538;52.196;9.892;2022-07-10T00:29:11;231.13;;;221.07;;
16693;SDS011;39538;52.196;9.892;2022-07-10T00:31:38;227.27;;;217.57;;
16693;SDS011;39538;52.196;9.892;2022-07-10T00:34:04;219.63;;;210.27;;
16693;SDS011;39538;52.196;9.892;2022-07-10T00:36:31;216.63;;;207.13;;
16693;SDS011;39538;52.196;9.892;2022-07-10T00:38:57;234.27;;;223.63;;
16693;SDS011;39538;52.196;9.892;2022-07-10T00:41:24;215.17;;;205.97;;
16693;SDS011;39538;52.196;9.892;2022-07-10T00:43:52;218.67;;;209.27;;
16693;SDS011;39538;52.196;9.892;2022-07-10T00:46:19;226.43;;;216.50;;
16693;SDS011;39538;52.196;9.892;2022-07-10T00:48:46;213.43;;;204.47;;
16693;SDS011;39538;52.196;9.892;2022-07-10T00:51:13;240.20;;;229.23;;
16693;SDS011;39538;52.196;9.892;2022-07-10T00:53:40;219.43;;;209.73;;
16693;SDS011;39538;52.196;9.892;2022-07-10T00:56:07;217.90;;;208.40;;
16693;SDS011;39538;52.196;9.892;2022-07-10T00:58:33;224.60;;;214.77;;
16693;SDS011;39538;52.196;9.892;2022-07-10T01:01:02;212.60;;;203.17;;
16693;SDS011;39538;52.196;9.892;2022-07-10T01:03:28;221.53;;;211.97;;
16693;SDS011;39538;52.196;9.892;2022-07-10T01:05:55;215.70;;;206.27;;
16693;SDS011;39538;52.196;9.892;2022-07-10T01:08:21;228.97;;;219.30;;
16693;SDS011;39538;52.196;9.892;2022-07-10T01:10:48;230.70;;;221.10;;
16693;SDS011;39538;52.196;9.892;2022-07-10T01:13:15;223.00;;;212.97;;
16693;SDS011;39538;52.196;9.892;2022-07-10T01:15:41;215.47;;;206.13;;
16693;SDS011;39538;52.196;9.892;2022-07-10T01:18:09;224.07;;;214.20;;
16693;SDS011;39538;52.196;9.892;2022-07-10T01:20:36;215.57;;;205.83;;
16693;SDS011;39538;52.196;9.892;2022-07-10T01:23:04;209.37;;;200.13;;
16693;SDS011;39538;52.196;9.892;2022-07-10T01:25:30;220.57;;;211.37;;
16693;SDS011;39538;52.196;9.892;2022-07-10T01:27:56;215.80;;;206.57;;
16693;SDS011;39538;52.196;9.892;2022-07-10T01:30:23;218.23;;;208.97;;
16693;SDS011;39538;52.196;9.892;2022-07-10T01:32:50;225.80;;;216.07;;
16693;SDS011;39538;52.196;9.892;2022-07-10T01:35:17;222.50;;;212.77;;
16693;SDS011;39538;52.196;9.892;2022-07-10T01:37:44;213.03;;;203.93;;
16693;SDS011;39538;52.196;9.892;2022-07-10T01:40:12;218.73;;;209.60;;
16693;SDS011;39538;52.196;9.892;2022-07-10T01:42:38;227.80;;;217.57;;
16693;SDS011;39538;52.196;9.892;2022-07-10T01:45:05;224.00;;;214.47;;
16693;SDS011;39538;52.196;9.892;2022-07-10T01:47:32;230.30;;;220.33;;
16693;SDS011;39538;52.196;9.892;2022-07-10T01:49:59;213.37;;;204.17;;
16693;SDS011;39538;52.196;9.892;2022-07-10T01:52:26;219.13;;;210.00;;
16693;SDS011;39538;52.196;9.892;2022-07-10T01:54:52;211.60;;;202.57;;
16693;SDS011;39538;52.196;9.892;2022-07-10T01:57:20;229.83;;;220.00;;
16693;SDS011;39538;52.196;9.892;2022-07-10T01:59:46;214.20;;;205.03;;
16693;SDS011;39538;52.196;9.892;2022-07-10T02:02:13;217.77;;;208.00;;
16693;SDS011;39538;52.196;9.892;2022-07-10T02:04:39;217.30;;;207.97;;
16693;SDS011;39538;52.196;9.892;2022-07-10T02:07:08;225.67;;;216.07;;
16693;SDS011;39538;52.196;9.892;2022-07-10T02:09:34;229.17;;;219.40;;
16693;SDS011;39538;52.196;9.892;2022-07-10T02:12:01;236.80;;;226.73;;
16693;SDS011;39538;52.196;9.892;2022-07-10T02:14:29;212.23;;;203.33;;
16693;SDS011;39538;52.196;9.892;2022-07-10T02:16:56;204.40;;;195.83;;
16693;SDS011;39538;52.196;9.892;2022-07-10T02:19:22;217.90;;;208.70;;
16693;SDS011;39538;52.196;9.892;2022-07-10T02:21:49;201.60;;;193.17;;
16693;SDS011;39538;52.196;9.892;2022-07-10T02:24:16;205.17;;;196.77;;
16693;SDS011;39538;52.196;9.892;2022-07-10T02:26:42;209.10;;;199.57;;
16693;SDS011;39538;52.196;9.892;2022-07-10T02:29:09;207.83;;;199.13;;
16693;SDS011;39538;52.196;9.892;2022-07-10T02:31:37;208.43;;;199.83;;
16693;SDS011;39538;52.196;9.892;2022-07-10T02:34:05;199.33;;;190.97;;
16693;SDS011;39538;52.196;9.892;2022-07-10T02:36:32;206.93;;;198.23;;
16693;SDS011;39538;52.196;9.892;2022-07-10T02:38:58;206.37;;;197.70;;
16693;SDS011;39538;52.196;9.892;2022-07-10T02:41:24;220.20;;;210.37;;
16693;SDS011;39538;52.196;9.892;2022-07-10T02:43:51;199.93;;;191.93;;
16693;SDS011;39538;52.196;9.892;2022-07-10T02:46:17;212.80;;;203.93;;
16693;SDS011;39538;52.196;9.892;2022-07-10T02:48:45;214.00;;;205.07;;
16693;SDS011;39538;52.196;9.892;2022-07-10T02:51:12;204.87;;;196.27;;
16693;SDS011;39538;52.196;9.892;2022-07-10T02:53:38;204.93;;;196.33;;
16693;SDS011;39538;52.196;9.892;2022-07-10T02:56:05;199.00;;;190.47;;
16693;SDS011;39538;52.196;9.892;2022-07-10T02:58:31;206.33;;;198.03;;
16693;SDS011;39538;52.196;9.892;2022-07-10T03:00:58;191.40;;;183.40;;
16693;SDS011;39538;52.196;9.892;2022-07-10T03:03:25;200.90;;;192.67;;
16693;SDS011;39538;52.196;9.892;2022-07-10T03:05:53;192.33;;;184.47;;
16693;SDS011;39538;52.196;9.892;2022-07-10T03:08:19;196.10;;;188.10;;
16693;SDS011;39538;52.196;9.892;2022-07-10T03:10:45;197.87;;;189.87;;
16693;SDS011;39538;52.196;9.892;2022-07-10T03:13:12;193.40;;;184.87;;
16693;SDS011;39538;52.196;9.892;2022-07-10T03:15:38;193.37;;;185.27;;
16693;SDS011;39538;52.196;9.892;2022-07-10T03:18:05;201.57;;;193.13;;
16693;SDS011;39538;52.196;9.892;2022-07-10T03:20:31;198.73;;;190.60;;
16693;SDS011;39538;52.196;9.892;2022-07-10T03:22:59;194.67;;;186.30;;
16693;SDS011;39538;52.196;9.892;2022-07-10T03:25:25;193.33;;;185.57;;
16693;SDS011;39538;52.196;9.892;2022-07-10T03:27:52;180.90;;;173.13;;
16693;SDS011;39538;52.196;9.892;2022-07-10T03:30:18;197.23;;;188.83;;
16693;SDS011;39538;52.196;9.892;2022-07-10T03:32:45;187.67;;;179.80;;
16693;SDS011;39538;52.196;9.892;2022-07-10T03:35:12;185.73;;;178.13;;
16693;SDS011;39538;52.196;9.892;2022-07-10T03:37:38;179.43;;;172.40;;
16693;SDS011;39538;52.196;9.892;2022-07-10T03:40:06;171.00;;;164.23;;
16693;SDS011;39538;52.196;9.892;2022-07-10T03:42:34;169.03;;;161.57;;
16693;SDS011;39538;52.196;9.892;2022-07-10T03:45:00;178.20;;;170.80;;
16693;SDS011;39538;52.196;9.892;2022-07-10T03:47:27;172.23;;;165.60;;
16693;SDS011;39538;52.196;9.892;2022-07-10T03:49:53;163.17;;;156.17;;
16693;SDS011;39538;52.196;9.892;2022-07-10T03:52:20;176.30;;;169.23;;
16693;SDS011;39538;52.196;9.892;2022-07-10T03:54:46;178.63;;;171.20;;
16693;SDS011;39538;52.196;9.892;2022-07-10T03:57:14;164.43;;;158.00;;
16693;SDS011;39538;52.196;9.892;2022-07-10T03:59:58;179.40;;;171.97;;
16693;SDS011;39538;52.196;9.892;2022-07-10T04:02:24;170.40;;;163.43;;
16693;SDS011;39538;52.196;9.892;2022-07-10T04:04:50;161.00;;;154.40;;
16693;SDS011;39538;52.196;9.892;2022-07-10T04:07:17;178.33;;;170.87;;
16693;SDS011;39538;52.196;9.892;2022-07-10T04:09:43;186.03;;;178.50;;
16693;SDS011;39538;52.196;9.892;2022-07-10T04:12:10;168.33;;;161.70;;
16693;SDS011;39538;52.196;9.892;2022-07-10T04:14:37;164.90;;;157.87;;
16693;SDS011;39538;52.196;9.892;2022-07-10T04:17:04;173.70;;;166.30;;
16693;SDS011;39538;52.196;9.892;2022-07-10T04:19:30;163.50;;;157.17;;
16693;SDS011;39538;52.196;9.892;2022-07-10T04:21:57;162.83;;;156.37;;
16693;SDS011;39538;52.196;9.892;2022-07-10T04:24:23;164.90;;;158.13;;
16693;SDS011;39538;52.196;9.892;2022-07-10T04:26:50;169.00;;;161.60;;
16693;SDS011;39538;52.196;9.892;2022-07-10T04:29:16;163.87;;;157.03;;
16693;SDS011;39538;52.196;9.892;2022-07-10T04:31:44;158.40;;;151.70;;
16693;SDS011;39538;52.196;9.892;2022-07-10T04:34:10;163.07;;;156.23;;
16693;SDS011;39538;52.196;9.892;2022-07-10T04:36:37;171.40;;;164.47;;
16693;SDS011;39538;52.196;9.892;2022-07-10T04:39:03;152.17;;;145.83;;
16693;SDS011;39538;52.196;9.892;2022-07-10T04:41:29;161.60;;;155.13;;
16693;SDS011;39538;52.196;9.892;2022-07-10T04:43:56;150.50;;;144.20;;
16693;SDS011;39538;52.196;9.892;2022-07-10T04:46:22;153.33;;;146.57;;
16693;SDS011;39538;52.196;9.892;2022-07-10T04:48:50;169.53;;;162.60;;
16693;SDS011;39538;52.196;9.892;2022-07-10T04:51:16;165.83;;;159.50;;
16693;SDS011;39538;52.196;9.892;2022-07-10T04:53:43;167.70;;;161.13;;
16693;SDS011;39538;52.196;9.892;2022-07-10T04:56:10;172.23;;;164.83;;
16693;SDS011;39538;52.196;9.892;2022-07-10T04:58:36;161.73;;;155.40;;
16693;SDS011;39538;52.196;9.892;2022-07-10T05:01:03;168.97;;;162.13;;
16693;SDS011;39538;52.196;9.892;2022-07-10T05:03:29;161.90;;;155.37;;
16693;SDS011;39538;52.196;9.892;2022-07-10T05:05:57;164.23;;;157.53;;
16693;SDS011;39538;52.196;9.892;2022-07-10T05:08:23;156.87;;;150.57;;
16693;SDS011;39538;52.196;9.892;2022-07-10T05:10:50;158.43;;;152.10;;
16693;SDS011;39538;52.196;9.892;2022-07-10T05:13:16;155.80;;;149.80;;
16693;SDS011;39538;52.196;9.892;2022-07-10T05:15:44;150.47;;;144.10;;
16693;SDS011;39538;52.196;9.892;2022-07-10T05:18:12;155.50;;;149.27;;
16693;SDS011;39538;52.196;9.892;2022-07-10T05:20:38;161.87;;;155.27;;
16693;SDS011;39538;52.196;9.892;2022-07-10T05:23:09;161.93;;;155.67;;
16693;SDS011;39538;52.196;9.892;2022-07-10T05:25:36;168.37;;;161.13;;
16693;SDS011;39538;52.196;9.892;2022-07-10T05:28:03;152.17;;;146.00;;
16693;SDS011;39538;52.196;9.892;2022-07-10T05:30:30;164.10;;;156.87;;
16693;SDS011;39538;52.196;9.892;2022-07-10T05:32:56;161.43;;;154.97;;
16693;SDS011;39538;52.196;9.892;2022-07-10T05:35:23;171.60;;;164.20;;
16693;SDS011;39538;52.196;9.892;2022-07-10T05:37:49;168.10;;;160.63;;
16693;SDS011;39538;52.196;9.892;2022-07-10T05:40:17;181.47;;;173.37;;
16693;SDS011;39538;52.196;9.892;2022-07-10T05:42:44;167.20;;;160.13;;
16693;SDS011;39538;52.196;9.892;2022-07-10T05:45:10;174.73;;;167.87;;
16693;SDS011;39538;52.196;9.892;2022-07-10T05:47:37;180.20;;;172.07;;
16693;SDS011;39538;52.196;9.892;2022-07-10T05:50:04;183.87;;;176.10;;
16693;SDS011;39538;52.196;9.892;2022-07-10T05:52:31;180.30;;;172.60;;
16693;SDS011;39538;52.196;9.892;2022-07-10T05:54:57;176.30;;;168.53;;
16693;SDS011;39538;52.196;9.892;2022-07-10T05:57:25;173.17;;;165.73;;
16693;SDS011;39538;52.196;9.892;2022-07-10T05:59:52;192.50;;;184.13;;
16693;SDS011;39538;52.196;9.892;2022-07-10T06:02:18;178.17;;;170.63;;
16693;SDS011;39538;52.196;9.892;2022-07-10T06:04:45;177.80;;;170.07;;
16693;SDS011;39538;52.196;9.892;2022-07-10T06:07:12;179.43;;;172.00;;
16693;SDS011;39538;52.196;9.892;2022-07-10T06:09:39;188.87;;;181.10;;
16693;SDS011;39538;52.196;9.892;2022-07-10T06:12:05;182.40;;;174.87;;
16693;SDS011;39538;52.196;9.892;2022-07-10T06:14:33;190.47;;;181.97;;
16693;SDS011;39538;52.196;9.892;2022-07-10T06:17:00;190.50;;;182.53;;
16693;SDS011;39538;52.196;9.892;2022-07-10T06:19:26;179.37;;;171.47;;
16693;SDS011;39538;52.196;9.892;2022-07-10T06:21:53;184.87;;;176.07;;
16693;SDS011;39538;52.196;9.892;2022-07-10T06:24:34;179.43;;;171.83;;
16693;SDS011;39538;52.196;9.892;2022-07-10T06:27:01;168.00;;;160.90;;
16693;SDS011;39538;52.196;9.892;2022-07-10T06:29:27;162.00;;;155.03;;
16693;SDS011;39538;52.196;9.892;2022-07-10T06:31:55;203.70;;;194.40;;
16693;SDS011;39538;52.196;9.892;2022-07-10T06:34:21;183.37;;;175.37;;
16693;SDS011;39538;52.196;9.892;2022-07-10T06:36:48;179.13;;;171.43;;
16693;SDS011;39538;52.196;9.892;2022-07-10T06:39:15;180.37;;;172.23;;
16693;SDS011;39538;52.196;9.892;2022-07-10T06:41:41;193.77;;;184.40;;
16693;SDS011;39538;52.196;9.892;2022-07-10T06:44:08;181.20;;;173.43;;
16693;SDS011;39538;52.196;9.892;2022-07-10T06:46:34;198.73;;;190.17;;
16693;SDS011;39538;52.196;9.892;2022-07-10T06:49:02;203.10;;;194.17;;
16693;SDS011;39538;52.196;9.892;2022-07-10T06:51:28;185.67;;;177.70;;
16693;SDS011;39538;52.196;9.892;2022-07-10T06:53:55;204.83;;;195.93;;
16693;SDS011;39538;52.196;9.892;2022-07-10T06:56:22;182.40;;;174.33;;
16693;SDS011;39538;52.196;9.892;2022-07-10T06:58:48;199.03;;;190.10;;
16693;SDS011;39538;52.196;9.892;2022-07-10T07:01:15;195.53;;;187.03;;
16693;SDS011;39538;52.196;9.892;2022-07-10T07:03:41;194.30;;;185.97;;
16693;SDS011;39538;52.196;9.892;2022-07-10T07:06:09;186.10;;;178.23;;
16693;SDS011;39538;52.196;9.892;2022-07-10T07:08:35;185.57;;;177.70;;
16693;SDS011;39538;52.196;9.892;2022-07-10T07:11:03;194.43;;;186.37;;
16693;SDS011;39538;52.196;9.892;2022-07-10T07:13:29;169.70;;;162.17;;
16693;SDS011;39538;52.196;9.892;2022-07-10T07:15:56;169.23;;;162.10;;
16693;SDS011;39538;52.196;9.892;2022-07-10T07:18:25;156.13;;;149.63;;
16693;SDS011;39538;52.196;9.892;2022-07-10T07:20:57;144.93;;;139.27;;
16693;SDS011;39538;52.196;9.892;2022-07-10T07:23:42;161.93;;;155.57;;
16693;SDS011;39538;52.196;9.892;2022-07-10T07:26:09;150.87;;;144.60;;
16693;SDS011;39538;52.196;9.892;2022-07-10T07:28:35;144.60;;;138.93;;
16693;SDS011;39538;52.196;9.892;2022-07-10T07:31:01;134.23;;;128.53;;
16693;SDS011;39538;52.196;9.892;2022-07-10T07:33:28;141.13;;;135.63;;
16693;SDS011;39538;52.196;9.892;2022-07-10T07:35:55;136.33;;;130.87;;
16693;SDS011;39538;52.196;9.892;2022-07-10T07:38:22;139.97;;;134.17;;
16693;SDS011;39538;52.196;9.892;2022-07-10T07:40:49;154.03;;;147.93;;
16693;SDS011;39538;52.196;9.892;2022-07-10T07:43:16;148.30;;;141.47;;
16693;SDS011;39538;52.196;9.892;2022-07-10T07:45:42;145.73;;;139.87;;
16693;SDS011;39538;52.196;9.892;2022-07-10T07:48:09;154.20;;;147.97;;
16693;SDS011;39538;52.196;9.892;2022-07-10T07:50:35;146.27;;;140.80;;
16693;SDS011;39538;52.196;9.892;2022-07-10T07:53:02;149.40;;;143.87;;
16693;SDS011;39538;52.196;9.892;2022-07-10T07:55:31;135.33;;;129.90;;
16693;SDS011;39538;52.196;9.892;2022-07-10T07:58:00;146.73;;;141.17;;
16693;SDS011;39538;52.196;9.892;2022-07-10T08:00:28;147.30;;;141.50;;
16693;SDS011;39538;52.196;9.892;2022-07-10T08:02:55;141.33;;;135.73;;
16693;SDS011;39538;52.196;9.892;2022-07-10T08:05:25;144.53;;;138.97;;
16693;SDS011;39538;52.196;9.892;2022-07-10T08:07:53;159.23;;;152.93;;
16693;SDS011;39538;52.196;9.892;2022-07-10T08:10:20;160.23;;;153.70;;
16693;SDS011;39538;52.196;9.892;2022-07-10T08:12:48;164.97;;;157.80;;
16693;SDS011;39538;52.196;9.892;2022-07-10T08:15:17;154.87;;;148.37;;
16693;SDS011;39538;52.196;9.892;2022-07-10T08:17:47;157.97;;;151.40;;
16693;SDS011;39538;52.196;9.892;2022-07-10T08:20:14;159.57;;;153.00;;
16693;SDS011;39538;52.196;9.892;2022-07-10T08:22:41;156.60;;;150.23;;
16693;SDS011;39538;52.196;9.892;2022-07-10T08:25:08;166.83;;;159.77;;
16693;SDS011;39538;52.196;9.892;2022-07-10T08:27:36;154.60;;;148.10;;
16693;SDS011;39538;52.196;9.892;2022-07-10T08:30:03;155.83;;;149.00;;
16693;SDS011;39538;52.196;9.892;2022-07-10T08:32:31;176.53;;;168.87;;
16693;SDS011;39538;52.196;9.892;2022-07-10T08:34:58;176.17;;;168.67;;
16693;SDS011;39538;52.196;9.892;2022-07-10T08:37:24;167.27;;;160.13;;
16693;SDS011;39538;52.196;9.892;2022-07-10T08:39:51;168.77;;;161.27;;
16693;SDS011;39538;52.196;9.892;2022-07-10T08:42:17;172.63;;;165.37;;
16693;SDS011;39538;52.196;9.892;2022-07-10T08:44:44;167.57;;;159.27;;
16693;SDS011;39538;52.196;9.892;2022-07-10T08:47:11;166.97;;;159.57;;
16693;SDS011;39538;52.196;9.892;2022-07-10T08:49:44;166.07;;;158.33;;
16693;SDS011;39538;52.196;9.892;2022-07-10T08:52:15;165.17;;;157.90;;
16693;SDS011;39538;52.196;9.892;2022-07-10T08:54:50;164.87;;;157.57;;
16693;SDS011;39538;52.196;9.892;2022-07-10T08:57:17;173.23;;;165.73;;
16693;SDS011;39538;52.196;9.892;2022-07-10T08:59:45;165.70;;;158.57;;
16693;SDS011;39538;52.196;9.892;2022-07-10T09:02:12;168.50;;;161.37;;
16693;SDS011;39538;52.196;9.892;2022-07-10T09:04:40;162.73;;;155.50;;
16693;SDS011;39538;52.196;9.892;2022-07-10T09:07:06;175.20;;;167.77;;
16693;SDS011;39538;52.196;9.892;2022-07-10T09:09:35;177.67;;;170.33;;
16693;SDS011;39538;52.196;9.892;2022-07-10T09:12:16;176.03;;;168.37;;
16693;SDS011;39538;52.196;9.892;2022-07-10T09:14:43;180.83;;;173.47;;
16693;SDS011;39538;52.196;9.892;2022-07-10T09:17:09;173.73;;;166.27;;
16693;SDS011;39538;52.196;9.892;2022-07-10T09:19:36;175.40;;;168.07;;
16693;SDS011;39538;52.196;9.892;2022-07-10T09:22:04;182.57;;;174.93;;
16693;SDS011;39538;52.196;9.892;2022-07-10T09:24:34;181.17;;;173.23;;
16693;SDS011;39538;52.196;9.892;2022-07-10T09:27:01;178.77;;;171.27;;
16693;SDS011;39538;52.196;9.892;2022-07-10T09:29:29;176.27;;;168.77;;
16693;SDS011;39538;52.196;9.892;2022-07-10T09:31:57;172.17;;;165.23;;
16693;SDS011;39538;52.196;9.892;2022-07-10T09:34:34;176.03;;;168.93;;
16693;SDS011;39538;52.196;9.892;2022-07-10T09:37:18;170.43;;;163.63;;
16693;SDS011;39538;52.196;9.892;2022-07-10T09:39:53;176.30;;;168.63;;
16693;SDS011;39538;52.196;9.892;2022-07-10T09:42:24;173.10;;;165.90;;
16693;SDS011;39538;52.196;9.892;2022-07-10T09:47:42;158.70;;;152.60;;
16693;SDS011;39538;52.196;9.892;2022-07-10T09:50:19;178.03;;;170.97;;
16693;SDS011;39538;52.196;9.892;2022-07-10T09:52:47;169.37;;;162.30;;
16693;SDS011;39538;52.196;9.892;2022-07-10T09:55:16;171.90;;;164.47;;
16693;SDS011;39538;52.196;9.892;2022-07-10T09:57:44;171.50;;;164.10;;
16693;SDS011;39538;52.196;9.892;2022-07-10T10:00:16;177.00;;;169.80;;
16693;SDS011;39538;52.196;9.892;2022-07-10T10:02:43;171.67;;;164.67;;
16693;SDS011;39538;52.196;9.892;2022-07-10T10:05:11;170.60;;;163.93;;
16693;SDS011;39538;52.196;9.892;2022-07-10T10:07:39;174.97;;;167.83;;
16693;SDS011;39538;52.196;9.892;2022-07-10T10:10:08;170.43;;;163.70;;
16693;SDS011;39538;52.196;9.892;2022-07-10T10:12:39;172.07;;;165.27;;
16693;SDS011;39538;52.196;9.892;2022-07-10T10:15:08;163.83;;;157.07;;
16693;SDS011;39538;52.196;9.892;2022-07-10T10:17:37;169.17;;;162.07;;
16693;SDS011;39538;52.196;9.892;2022-07-10T10:20:07;168.83;;;161.73;;
16693;SDS011;39538;52.196;9.892;2022-07-10T10:22:57;166.17;;;159.30;;
16693;SDS011;39538;52.196;9.892;2022-07-10T10:25:27;162.87;;;156.37;;
16693;SDS011;39538;52.196;9.892;2022-07-10T10:27:54;171.33;;;164.03;;
16693;SDS011;39538;52.196;9.892;2022-07-10T10:30:21;162.80;;;156.03;;
16693;SDS011;39538;52.196;9.892;2022-07-10T10:32:48;177.10;;;170.00;;
16693;SDS011;39538;52.196;9.892;2022-07-10T10:38:09;194.33;;;186.40;;
16693;SDS011;39538;52.196;9.892;2022-07-10T10:40:36;215.20;;;206.47;;
16693;SDS011;39538;52.196;9.892;2022-07-10T10:43:16;230.17;;;220.60;;
16693;SDS011;39538;52.196;9.892;2022-07-10T10:45:46;217.10;;;207.77;;
16693;SDS011;39538;52.196;9.892;2022-07-10T10:48:13;213.10;;;204.23;;
16693;SDS011;39538;52.196;9.892;2022-07-10T10:50:41;227.73;;;218.10;;
16693;SDS011;39538;52.196;9.892;2022-07-10T10:53:14;238.83;;;228.97;;
16693;SDS011;39538;52.196;9.892;2022-07-10T10:58:46;231.97;;;222.50;;
16693;SDS011;39538;52.196;9.892;2022-07-10T11:01:23;243.47;;;233.20;;
16693;SDS011;39538;52.196;9.892;2022-07-10T11:06:39;280.83;;;269.07;;
16693;SDS011;39538;52.196;9.892;2022-07-10T11:09:20;286.17;;;274.13;;
16693;SDS011;39538;52.196;9.892;2022-07-10T11:11:57;308.88;;;295.70;;
16693;SDS011;39538;52.196;9.892;2022-07-10T11:14:25;306.15;;;293.48;;
16693;SDS011;39538;52.196;9.892;2022-07-10T11:16:53;347.20;;;332.33;;
16693;SDS011;39538;52.196;9.892;2022-07-10T11:19:24;343.83;;;329.30;;
16693;SDS011;39538;52.196;9.892;2022-07-10T11:25:13;349.02;;;333.55;;
16693;SDS011;39538;52.196;9.892;2022-07-10T11:27:58;358.15;;;342.65;;
16693;SDS011;39538;52.196;9.892;2022-07-10T11:43:30;304.52;;;291.92;;
16693;SDS011;39538;52.196;9.892;2022-07-10T11:45:56;322.77;;;308.88;;
16693;SDS011;39538;52.196;9.892;2022-07-10T11:48:26;325.20;;;311.35;;
16693;SDS011;39538;52.196;9.892;2022-07-10T11:50:52;336.27;;;321.87;;
16693;SDS011;39538;52.196;9.892;2022-07-10T11:53:22;323.83;;;310.07;;
16693;SDS011;39538;52.196;9.892;2022-07-10T11:55:49;294.03;;;281.50;;
16693;SDS011;39538;52.196;9.892;2022-07-10T11:58:17;306.50;;;293.30;;
16693;SDS011;39538;52.196;9.892;2022-07-10T12:00:57;299.20;;;286.67;;
16693;SDS011;39538;52.196;9.892;2022-07-10T12:03:26;323.50;;;309.58;;
16693;SDS011;39538;52.196;9.892;2022-07-10T12:05:53;299.77;;;286.70;;
16693;SDS011;39538;52.196;9.892;2022-07-10T12:08:19;323.07;;;308.87;;
16693;SDS011;39538;52.196;9.892;2022-07-10T12:10:46;313.77;;;300.63;;
16693;SDS011;39538;52.196;9.892;2022-07-10T12:13:13;320.70;;;307.17;;
16693;SDS011;39538;52.196;9.892;2022-07-10T12:15:41;312.60;;;299.17;;
16693;SDS011;39538;52.196;9.892;2022-07-10T12:18:15;313.30;;;299.97;;
16693;SDS011;39538;52.196;9.892;2022-07-10T12:20:43;293.83;;;281.80;;
16693;SDS011;39538;52.196;9.892;2022-07-10T12:23:12;283.37;;;271.60;;
16693;SDS011;39538;52.196;9.892;2022-07-10T12:25:41;276.90;;;264.70;;
16693;SDS011;39538;52.196;9.892;2022-07-10T12:28:08;262.27;;;251.47;;
16693;SDS011;39538;52.196;9.892;2022-07-10T12:30:38;263.13;;;252.47;;
16693;SDS011;39538;52.196;9.892;2022-07-10T12:33:07;264.23;;;253.37;;
16693;SDS011;39538;52.196;9.892;2022-07-10T12:35:46;241.10;;;231.13;;
16693;SDS011;39538;52.196;9.892;2022-07-10T12:38:14;225.30;;;216.40;;
16693;SDS011;39538;52.196;9.892;2022-07-10T12:40:42;241.40;;;231.83;;
16693;SDS011;39538;52.196;9.892;2022-07-10T12:43:09;236.17;;;226.37;;
16693;SDS011;39538;52.196;9.892;2022-07-10T12:45:36;221.23;;;212.37;;
16693;SDS011;39538;52.196;9.892;2022-07-10T12:48:04;220.53;;;211.60;;
16693;SDS011;39538;52.196;9.892;2022-07-10T12:50:31;210.60;;;202.07;;
16693;SDS011;39538;52.196;9.892;2022-07-10T12:53:10;212.50;;;203.50;;
16693;SDS011;39538;52.196;9.892;2022-07-10T12:55:38;207.17;;;198.90;;
16693;SDS011;39538;52.196;9.892;2022-07-10T12:58:07;192.10;;;184.40;;
16693;SDS011;39538;52.196;9.892;2022-07-10T13:00:42;211.27;;;202.47;;
16693;SDS011;39538;52.196;9.892;2022-07-10T13:03:11;205.20;;;197.07;;
16693;SDS011;39538;52.196;9.892;2022-07-10T13:05:43;211.40;;;202.77;;
16693;SDS011;39538;52.196;9.892;2022-07-10T13:08:12;200.10;;;191.93;;
16693;SDS011;39538;52.196;9.892;2022-07-10T13:10:42;200.40;;;192.40;;
16693;SDS011;39538;52.196;9.892;2022-07-10T13:13:09;179.13;;;171.80;;
16693;SDS011;39538;52.196;9.892;2022-07-10T13:15:36;187.53;;;179.73;;
16693;SDS011;39538;52.196;9.892;2022-07-10T13:18:06;192.20;;;184.53;;
16693;SDS011;39538;52.196;9.892;2022-07-10T13:20:33;198.97;;;191.00;;
16693;SDS011;39538;52.196;9.892;2022-07-10T13:22:59;187.30;;;179.93;;
16693;SDS011;39538;52.196;9.892;2022-07-10T13:25:27;189.40;;;181.47;;
16693;SDS011;39538;52.196;9.892;2022-07-10T13:27:54;183.20;;;175.63;;
16693;SDS011;39538;52.196;9.892;2022-07-10T13:30:20;176.83;;;169.67;;
16693;SDS011;39538;52.196;9.892;2022-07-10T13:32:47;170.77;;;163.77;;
16693;SDS011;39538;52.196;9.892;2022-07-10T13:35:13;178.57;;;171.63;;
16693;SDS011;39538;52.196;9.892;2022-07-10T13:37:40;184.90;;;177.53;;
16693;SDS011;39538;52.196;9.892;2022-07-10T13:40:07;206.27;;;198.03;;
16693;SDS011;39538;52.196;9.892;2022-07-10T13:42:35;169.33;;;162.53;;
16693;SDS011;39538;52.196;9.892;2022-07-10T13:45:02;184.93;;;177.53;;
16693;SDS011;39538;52.196;9.892;2022-07-10T13:47:29;188.33;;;180.63;;
16693;SDS011;39538;52.196;9.892;2022-07-10T13:49:56;171.07;;;163.70;;
16693;SDS011;39538;52.196;9.892;2022-07-10T13:52:22;169.50;;;162.77;;
16693;SDS011;39538;52.196;9.892;2022-07-10T13:54:49;159.70;;;153.60;;
16693;SDS011;39538;52.196;9.892;2022-07-10T13:57:15;154.67;;;148.67;;
16693;SDS011;39538;52.196;9.892;2022-07-10T13:59:43;152.43;;;146.67;;
16693;SDS011;39538;52.196;9.892;2022-07-10T14:02:10;163.80;;;157.17;;
16693;SDS011;39538;52.196;9.892;2022-07-10T14:04:37;156.13;;;149.43;;
16693;SDS011;39538;52.196;9.892;2022-07-10T14:07:04;162.33;;;155.90;;
16693;SDS011;39538;52.196;9.892;2022-07-10T14:09:30;153.40;;;147.27;;
16693;SDS011;39538;52.196;9.892;2022-07-10T14:11:57;163.33;;;156.67;;
16693;SDS011;39538;52.196;9.892;2022-07-10T14:14:23;160.90;;;154.37;;
16693;SDS011;39538;52.196;9.892;2022-07-10T14:16:51;152.10;;;146.03;;
16693;SDS011;39538;52.196;9.892;2022-07-10T14:19:17;174.13;;;167.13;;
16693;SDS011;39538;52.196;9.892;2022-07-10T14:21:44;170.80;;;163.77;;
16693;SDS011;39538;52.196;9.892;2022-07-10T14:24:10;162.90;;;156.33;;
16693;SDS011;39538;52.196;9.892;2022-07-10T14:26:37;156.07;;;149.53;;
16693;SDS011;39538;52.196;9.892;2022-07-10T14:29:03;164.83;;;158.03;;